La Oroya, Peru
Current Conditions -  °F | °C
As of 10:00 AM on Friday 31 Oct 2014 (Local Time) from SPIM Reporting Station
Overcast Overcast  
Wind Chill: 66°   Ceiling: 2400
Heat Index: 66°   Visibility: 6mi
Dew Point: 59°   Wind: 5mph
Humidity: 78%   Direction: 280°W
Pressure: 30"   Gusts: NA
Location:  11.52°S, 75.94°W
Report Text: SPIM 311500Z 28004KT 250V330 9999 SCT016 OVC024 19/15 Q1016 NOSIG RMK BIRD HAZARD RWY 15 PP000
Loading
Personal Weather Stations






























Interactive Weather Map
Tropical Storm Tracking
New forecast layout! Learn more

10-Day Weather Forecast

Advertisements
Track Severe Weather on mobile